Time;durP1;ratioP1;P1;durP2;ratioP2;P2;SDS_P1;SDS_P2;PMS_P1;PMS_P2;Temp;Humidity;BMP_temperature;BMP_pressure;BME280_temperature;BME280_humidity;BME280_pressure;Samples;Min_cycle;Max_cycle;Signal;HPM_P1;HPM_P2
2021/04/23 00:01:23;;;;;;;8.80;2.80;;;;;;;6.14;100.00;102859.72;1887249;75;26236;-84
2021/04/23 00:03:55;;;;;;;8.63;2.70;;;;;;;6.03;100.00;102857.57;1877517;76;26254;-84
2021/04/23 00:06:27;;;;;;;8.33;3.17;;;;;;;6.12;100.00;102863.20;1877575;76;26709;-84
2021/04/23 00:09:00;;;;;;;6.67;2.70;;;;;;;6.34;100.00;102862.00;1853706;76;26198;-84
2021/04/23 00:11:34;;;;;;;9.97;2.97;;;;;;;6.10;100.00;102863.95;1887030;76;26167;-83
2021/04/23 00:14:05;;;;;;;7.67;3.33;;;;;;;5.93;100.00;102858.47;1887204;75;26286;-83
2021/04/23 00:16:35;;;;;;;8.13;3.13;;;;;;;6.00;100.00;102859.86;1887050;76;26619;-82
2021/04/23 00:19:07;;;;;;;9.13;3.27;;;;;;;5.88;100.00;102855.47;1887238;75;26398;-83
2021/04/23 00:21:37;;;;;;;5.27;3.20;;;;;;;5.70;100.00;102853.23;1887189;76;26180;-83
2021/04/23 00:24:08;;;;;;;7.00;3.40;;;;;;;5.74;100.00;102852.28;1887060;75;26638;-82
2021/04/23 00:26:38;;;;;;;8.57;3.20;;;;;;;5.61;100.00;102859.11;1877481;76;26764;-80
2021/04/23 00:29:09;;;;;;;6.97;2.73;;;;;;;5.67;100.00;102862.44;1853700;76;26720;-81
2021/04/23 00:31:41;;;;;;;8.13;3.43;;;;;;;5.59;100.00;102861.23;1886953;76;26194;-81
2021/04/23 00:34:11;;;;;;;6.13;2.87;;;;;;;5.67;100.00;102860.54;1887077;75;26612;-82
2021/04/23 00:36:40;;;;;;;7.93;3.63;;;;;;;5.56;100.00;102855.61;1877423;76;26294;-81
2021/04/23 00:39:10;;;;;;;5.33;2.80;;;;;;;5.58;100.00;102858.14;1853877;76;26262;-81
2021/04/23 00:41:40;;;;;;;5.63;3.20;;;;;;;5.67;100.00;102856.92;1887010;75;26703;-79
2021/04/23 00:44:10;;;;;;;9.73;3.33;;;;;;;5.80;100.00;102861.13;1877671;76;26324;-81
2021/04/23 00:46:40;;;;;;;6.00;2.80;;;;;;;5.85;100.00;102856.72;1853753;76;26186;-82
2021/04/23 00:49:11;;;;;;;8.20;3.13;;;;;;;5.85;100.00;102855.86;1887255;76;26642;-81
2021/04/23 00:51:43;;;;;;;10.13;3.40;;;;;;;5.86;100.00;102852.91;1877808;76;26238;-81
2021/04/23 00:54:13;;;;;;;7.57;2.97;;;;;;;5.88;100.00;102854.09;1877792;76;26219;-80
2021/04/23 00:56:43;;;;;;;6.80;3.10;;;;;;;5.72;100.00;102862.16;1853848;76;26252;-81
2021/04/23 00:59:14;;;;;;;6.07;3.40;;;;;;;5.79;100.00;102860.28;1887044;76;26272;-81
2021/04/23 01:01:48;;;;;;;10.60;3.50;;;;;;;5.84;100.00;102857.77;1877578;76;26197;-81
2021/04/23 01:04:20;;;;;;;10.93;3.67;;;;;;;5.84;100.00;102856.39;1853742;76;26718;-81
2021/04/23 01:06:50;;;;;;;9.13;3.50;;;;;;;5.82;100.00;102861.77;1886867;76;26266;-80
2021/04/23 01:09:23;;;;;;;10.60;3.87;;;;;;;5.85;100.00;102856.72;1886989;75;26257;-80
2021/04/23 01:11:54;;;;;;;9.40;3.37;;;;;;;5.95;100.00;102856.34;1877410;76;26629;-81
2021/04/23 01:14:25;;;;;;;9.13;3.67;;;;;;;5.82;100.00;102859.86;1853638;76;26197;-81
2021/04/23 01:16:55;;;;;;;7.03;3.70;;;;;;;5.91;100.00;102854.53;1886999;76;26182;-82
2021/04/23 01:19:27;;;;;;;5.30;2.93;;;;;;;5.86;100.00;102854.29;1893497;76;26276;-81
2021/04/23 01:21:57;;;;;;;8.40;3.13;;;;;;;5.83;100.00;102853.30;1893480;76;26311;-81
2021/04/23 01:24:28;;;;;;;10.00;4.27;;;;;;;5.53;100.00;102848.25;1893387;76;26342;-81
2021/04/23 01:26:58;;;;;;;6.67;3.10;;;;;;;5.56;100.00;102850.09;1893503;76;26785;-81
2021/04/23 01:29:28;;;;;;;10.77;3.10;;;;;;;5.52;100.00;102848.77;1893316;76;26200;-81
2021/04/23 01:31:59;;;;;;;9.33;3.43;;;;;;;5.53;100.00;102852.38;1893423;76;26218;-82
2021/04/23 01:34:32;;;;;;;9.27;3.40;;;;;;;5.50;100.00;102855.89;1893372;76;26226;-82
2021/04/23 01:37:05;;;;;;;10.43;3.23;;;;;;;5.48;100.00;102849.70;1893609;76;26205;-82
2021/04/23 01:39:37;;;;;;;10.43;3.93;;;;;;;5.56;100.00;102849.24;1893427;76;26266;-81
2021/04/23 01:42:11;;;;;;;10.23;3.57;;;;;;;5.63;100.00;102848.74;1893472;76;26304;-81
2021/04/23 01:44:42;;;;;;;6.10;3.47;;;;;;;5.42;100.00;102856.05;1893427;76;26213;-82
2021/04/23 01:47:12;;;;;;;12.13;4.30;;;;;;;5.28;100.00;102858.91;1914603;75;26186;-82
2021/04/23 01:49:42;;;;;;;8.43;3.83;;;;;;;5.34;100.00;102850.70;1914608;74;26683;-81
2021/04/23 01:52:15;;;;;;;10.57;3.23;;;;;;;5.21;100.00;102849.75;1914475;75;26188;-81
2021/04/23 01:54:45;;;;;;;9.13;3.50;;;;;;;5.34;100.00;102849.32;1914610;75;26175;-82
2021/04/23 01:57:15;;;;;;;12.13;3.57;;;;;;;5.22;100.00;102851.46;1914580;74;26180;-82
2021/04/23 01:59:47;;;;;;;9.13;3.40;;;;;;;5.17;100.00;102853.44;1914519;74;26188;-82
2021/04/23 02:02:18;;;;;;;9.20;3.67;;;;;;;5.14;100.00;102851.58;1914587;74;26277;-82
2021/04/23 02:04:48;;;;;;;7.23;3.70;;;;;;;5.12;100.00;102849.57;1914493;74;26626;-82
2021/04/23 02:07:20;;;;;;;5.13;3.57;;;;;;;4.99;100.00;102852.55;1914438;75;26238;-82
2021/04/23 02:09:50;;;;;;;10.70;3.93;;;;;;;4.83;100.00;102852.00;1914475;74;26183;-82
2021/04/23 02:12:20;;;;;;;9.03;3.40;;;;;;;4.89;100.00;102851.18;1914512;74;26672;-82
2021/04/23 02:14:50;;;;;;;8.23;3.47;;;;;;;4.86;100.00;102851.06;1914777;74;26266;-82
2021/04/23 02:17:20;;;;;;;6.60;3.67;;;;;;;4.93;100.00;102854.72;1914666;74;26175;-81
2021/04/23 02:19:50;;;;;;;6.60;3.17;;;;;;;4.82;100.00;102850.28;1914553;75;26187;-81
2021/04/23 02:22:20;;;;;;;6.17;3.90;;;;;;;4.65;100.00;102849.70;1914600;74;26681;-82
2021/04/23 02:24:50;;;;;;;10.33;4.10;;;;;;;4.54;100.00;102857.95;1914674;74;26172;-82
2021/04/23 02:27:19;;;;;;;7.27;3.50;;;;;;;4.65;100.00;102859.34;1914697;74;26241;-81
2021/04/23 02:29:49;;;;;;;6.43;3.87;;;;;;;4.59;100.00;102860.12;1914625;74;26254;-82
2021/04/23 02:32:19;;;;;;;11.67;3.93;;;;;;;4.61;100.00;102867.67;1914567;75;26257;-82
2021/04/23 02:34:49;;;;;;;5.80;3.50;;;;;;;4.44;100.00;102867.59;1914619;74;26180;-82
2021/04/23 02:37:19;;;;;;;7.30;3.77;;;;;;;4.31;100.00;102865.55;1914594;74;26257;-82
2021/04/23 02:39:49;;;;;;;9.73;3.90;;;;;;;4.49;100.00;102868.69;1914568;74;26249;-82
2021/04/23 02:42:19;;;;;;;7.60;3.90;;;;;;;4.50;100.00;102873.16;1914550;73;26168;-81
2021/04/23 02:44:49;;;;;;;6.80;4.10;;;;;;;4.50;100.00;102877.28;1914576;74;26227;-82
2021/04/23 02:47:21;;;;;;;10.00;4.23;;;;;;;4.43;100.00;102876.89;1914715;74;26168;-81
2021/04/23 02:49:51;;;;;;;11.20;4.50;;;;;;;4.54;100.00;102873.09;1914758;75;26173;-81
2021/04/23 02:52:21;;;;;;;9.67;3.80;;;;;;;4.53;100.00;102868.66;1914601;75;26246;-81
2021/04/23 02:54:51;;;;;;;10.53;4.20;;;;;;;4.56;100.00;102874.28;1914711;74;26175;-81
2021/04/23 02:57:21;;;;;;;9.30;4.07;;;;;;;4.62;100.00;102867.15;1914636;74;26195;-82
2021/04/23 02:59:50;;;;;;;6.43;4.37;;;;;;;4.62;100.00;102867.97;1914677;74;26662;-82
2021/04/23 03:02:20;;;;;;;5.33;3.83;;;;;;;4.67;100.00;102867.38;1914668;74;26677;-82
2021/04/23 03:04:51;;;;;;;9.63;3.80;;;;;;;4.84;100.00;102859.18;1914635;74;26286;-83
2021/04/23 03:07:21;;;;;;;9.07;4.30;;;;;;;4.69;100.00;102864.78;1914627;75;26609;-83
2021/04/23 03:09:51;;;;;;;8.77;4.07;;;;;;;4.39;100.00;102868.18;1914570;75;26681;-83
2021/04/23 03:12:21;;;;;;;8.00;3.80;;;;;;;4.46;100.00;102862.21;1914764;74;26234;-82
2021/04/23 03:14:51;;;;;;;8.13;3.80;;;;;;;4.28;100.00;102865.92;1914614;74;26175;-80
2021/04/23 03:17:21;;;;;;;8.30;3.80;;;;;;;4.20;100.00;102854.19;1914677;74;26642;-80
2021/04/23 03:19:51;;;;;;;6.60;3.33;;;;;;;4.12;100.00;102862.89;1914575;74;26639;-79
2021/04/23 03:22:20;;;;;;;3.63;2.73;;;;;;;3.82;100.00;102864.51;1914610;74;26610;-80
2021/04/23 03:24:50;;;;;;;2.23;1.90;;;;;;;3.60;100.00;102876.80;1914606;74;26184;-81
2021/04/23 03:27:20;;;;;;;2.60;2.10;;;;;;;3.49;100.00;102877.28;1914540;75;26176;-80
2021/04/23 03:29:50;;;;;;;6.67;3.03;;;;;;;3.28;100.00;102879.06;1914751;74;26184;-80
2021/04/23 03:32:20;;;;;;;4.90;2.93;;;;;;;3.31;100.00;102878.16;1914594;74;26254;-81
2021/04/23 03:34:50;;;;;;;6.20;3.23;;;;;;;3.50;100.00;102876.25;1914635;75;26188;-80
2021/04/23 03:37:21;;;;;;;8.40;4.10;;;;;;;3.43;100.00;102875.28;1914674;75;26697;-80
2021/04/23 03:40:10;;;;;;;8.93;4.87;;;;;;;3.65;100.00;102874.86;1839597;78;33182;-81
2021/04/23 03:42:40;;;;;;;8.93;4.90;;;;;;;3.46;100.00;102876.30;1840194;78;26216;-81
2021/04/23 03:45:12;;;;;;;11.60;5.33;;;;;;;3.58;100.00;102873.92;1839989;76;26252;-80
2021/04/23 03:47:43;;;;;;;9.17;5.17;;;;;;;3.54;100.00;102874.83;1840045;78;26729;-80
2021/04/23 03:50:16;;;;;;;9.70;4.97;;;;;;;3.62;100.00;102874.73;1840115;78;26695;-81
2021/04/23 03:52:46;;;;;;;9.27;5.00;;;;;;;3.74;100.00;102871.48;1840212;78;26331;-81
2021/04/23 03:55:19;;;;;;;9.47;4.63;;;;;;;3.85;100.00;102871.84;1839850;78;26213;-81
2021/04/23 03:57:49;;;;;;;9.40;4.20;;;;;;;3.83;100.00;102870.34;1840189;78;26678;-81
2021/04/23 04:00:24;;;;;;;9.00;4.40;;;;;;;3.35;100.00;102880.01;1828372;78;932800;-81
2021/04/23 04:02:54;;;;;;;6.63;4.40;;;;;;;3.54;100.00;102880.33;1840096;78;26326;-81
2021/04/23 04:05:24;;;;;;;8.80;4.30;;;;;;;3.65;100.00;102884.48;1840429;78;26224;-81
2021/04/23 04:07:54;;;;;;;9.50;5.20;;;;;;;3.64;100.00;102884.14;1840291;78;26302;-81
2021/04/23 04:10:24;;;;;;;9.03;4.80;;;;;;;3.73;100.00;102878.88;1844248;75;26676;-81
2021/04/23 04:12:54;;;;;;;11.47;5.13;;;;;;;3.73;100.00;102877.50;1914603;75;26667;-81
2021/04/23 04:15:25;;;;;;;13.37;5.07;;;;;;;3.65;100.00;102870.22;1914626;74;26619;-81
2021/04/23 04:17:56;;;;;;;11.10;4.80;;;;;;;3.78;100.00;102876.94;1914795;74;26179;-82
2021/04/23 04:20:28;;;;;;;7.93;4.57;;;;;;;3.78;100.00;102881.91;1914693;75;26255;-81
2021/04/23 04:22:59;;;;;;;12.53;4.57;;;;;;;3.86;100.00;102880.44;1914687;74;26169;-82
2021/04/23 04:25:32;;;;;;;10.70;4.97;;;;;;;3.80;100.00;102881.73;1914535;74;26326;-82
2021/04/23 04:28:02;;;;;;;7.83;4.40;;;;;;;3.73;100.00;102875.27;1914597;74;26319;-82
2021/04/23 04:30:32;;;;;;;12.57;4.87;;;;;;;3.68;100.00;102881.34;1914594;74;26362;-81
2021/04/23 04:33:03;;;;;;;6.83;3.97;;;;;;;3.58;100.00;102878.05;1914607;75;26187;-82
2021/04/23 04:35:34;;;;;;;9.23;4.37;;;;;;;3.61;100.00;102874.39;1914742;74;26187;-82
2021/04/23 04:38:07;;;;;;;9.53;4.37;;;;;;;3.54;100.00;102876.20;1914657;74;26620;-82
2021/04/23 04:40:38;;;;;;;8.80;4.53;;;;;;;3.61;100.00;102878.52;1914473;75;26622;-81
2021/04/23 04:43:11;;;;;;;11.93;5.23;;;;;;;3.63;100.00;102879.70;1914802;74;26200;-81
2021/04/23 04:45:42;;;;;;;10.10;5.27;;;;;;;3.61;100.00;102884.01;1914620;74;26692;-81
2021/04/23 04:48:14;;;;;;;9.43;4.90;;;;;;;3.56;100.00;102889.21;1914597;74;26627;-80
2021/04/23 04:50:47;;;;;;;10.23;4.73;;;;;;;3.46;100.00;102899.65;1914680;74;26324;-81
2021/04/23 04:53:18;;;;;;;13.53;5.00;;;;;;;3.41;100.00;102897.13;1914568;74;26176;-81
2021/04/23 04:55:51;;;;;;;8.20;4.90;;;;;;;3.43;100.00;102898.63;1914660;74;26181;-81
2021/04/23 04:58:23;;;;;;;9.33;4.80;;;;;;;3.63;100.00;102893.45;1914640;74;26169;-80
2021/04/23 05:00:53;;;;;;;11.50;5.67;;;;;;;3.56;100.00;102900.20;1914510;75;26663;-81
2021/04/23 05:03:24;;;;;;;12.07;4.90;;;;;;;3.66;100.00;102898.03;1914517;74;26296;-80
2021/04/23 05:05:54;;;;;;;9.47;4.47;;;;;;;3.50;100.00;102897.37;1914550;74;26576;-81
2021/04/23 05:08:24;;;;;;;8.50;5.27;;;;;;;3.55;100.00;102903.98;1914634;75;26657;-80
2021/04/23 05:10:54;;;;;;;10.07;4.87;;;;;;;3.68;100.00;102903.88;1914657;74;26173;-80
2021/04/23 05:13:23;;;;;;;12.13;5.27;;;;;;;3.52;100.00;102909.87;1914564;75;26163;-81
2021/04/23 05:15:53;;;;;;;9.50;5.20;;;;;;;3.73;100.00;102904.98;1914711;74;26164;-80
2021/04/23 05:18:23;;;;;;;11.43;4.43;;;;;;;3.67;100.00;102909.89;1914599;74;26241;-81
2021/04/23 05:20:53;;;;;;;11.43;5.17;;;;;;;3.71;100.00;102917.23;1914503;74;26173;-81
2021/04/23 05:23:23;;;;;;;7.57;4.30;;;;;;;3.57;100.00;102912.91;1914525;74;26745;-81
2021/04/23 05:25:54;;;;;;;10.27;5.43;;;;;;;3.58;100.00;102922.02;1914641;74;26199;-79
2021/04/23 05:28:23;;;;;;;12.77;5.57;;;;;;;3.54;100.00;102919.31;1914561;74;26176;-80
2021/04/23 05:30:53;;;;;;;10.60;4.83;;;;;;;3.66;100.00;102917.27;1914569;74;26164;-80
2021/04/23 05:33:23;;;;;;;9.67;5.17;;;;;;;3.76;100.00;102913.39;1914604;74;26169;-80
2021/04/23 05:35:53;;;;;;;13.93;5.10;;;;;;;3.87;100.00;102912.38;1914617;75;26622;-80
2021/04/23 05:38:23;;;;;;;9.47;5.33;;;;;;;3.93;100.00;102914.38;1914715;75;26169;-80
2021/04/23 05:40:53;;;;;;;12.27;5.20;;;;;;;4.00;100.00;102919.95;1914589;75;26185;-82
2021/04/23 05:43:23;;;;;;;14.87;5.77;;;;;;;4.07;100.00;102914.87;1914686;75;26265;-81
2021/04/23 05:45:53;;;;;;;8.70;4.90;;;;;;;4.04;100.00;102919.91;1914523;74;26235;-82
2021/04/23 05:48:23;;;;;;;9.30;5.30;;;;;;;4.15;100.00;102919.95;1914498;75;26239;-81
2021/04/23 05:50:53;;;;;;;9.73;4.80;;;;;;;4.13;100.00;102921.51;1914774;74;26241;-82
2021/04/23 05:53:23;;;;;;;10.63;4.90;;;;;;;4.04;100.00;102924.03;1914729;74;26165;-82
2021/04/23 05:55:53;;;;;;;10.50;4.77;;;;;;;4.03;100.00;102932.80;1914572;74;26156;-81
2021/04/23 05:58:23;;;;;;;15.00;5.97;;;;;;;4.09;100.00;102932.05;1914606;75;26172;-80
2021/04/23 06:00:53;;;;;;;14.17;6.13;;;;;;;4.45;100.00;102933.42;1914630;74;26180;-82
2021/04/23 06:03:22;;;;;;;13.23;5.90;;;;;;;4.30;100.00;102929.02;1914644;74;26678;-81
2021/04/23 06:05:54;;;;;;;10.97;5.63;;;;;;;4.49;100.00;102936.11;1914576;75;26619;-81
2021/04/23 06:08:25;;;;;;;16.97;6.20;;;;;;;4.59;100.00;102928.92;1914810;74;26246;-82
2021/04/23 06:10:55;;;;;;;11.97;6.33;;;;;;;4.78;100.00;102937.94;1914612;74;26176;-80
2021/04/23 06:13:25;;;;;;;15.60;6.93;;;;;;;4.90;100.00;102942.39;1914552;74;26171;-81
2021/04/23 06:15:55;;;;;;;12.03;6.67;;;;;;;4.98;100.00;102943.62;1914750;74;26157;-81
2021/04/23 06:18:25;;;;;;;15.40;6.73;;;;;;;5.07;100.00;102941.59;1914692;74;26651;-80
2021/04/23 06:20:55;;;;;;;17.17;7.80;;;;;;;5.37;100.00;102944.52;1914643;74;26274;-80
2021/04/23 06:23:24;;;;;;;15.63;7.50;;;;;;;5.44;100.00;102937.98;1914610;74;26726;-81
2021/04/23 06:25:54;;;;;;;12.87;8.13;;;;;;;5.82;100.00;102938.45;1914589;75;26699;-82
2021/04/23 06:28:24;;;;;;;15.83;7.93;;;;;;;6.10;100.00;102941.73;1914723;74;26179;-82
2021/04/23 06:30:55;;;;;;;15.03;7.23;;;;;;;6.01;100.00;102939.67;1914730;74;26257;-83
2021/04/23 06:33:38;;;;;;;17.93;7.67;;;;;;;6.22;100.00;102942.33;1914714;74;26258;-83
2021/04/23 06:36:09;;;;;;;16.10;6.90;;;;;;;6.30;100.00;102950.95;1915232;75;26229;-82
2021/04/23 06:38:39;;;;;;;16.07;7.50;;;;;;;6.46;100.00;102949.76;1914790;74;26183;-82
2021/04/23 06:41:09;;;;;;;17.87;7.33;;;;;;;6.53;100.00;102950.09;1914582;75;26692;-81
2021/04/23 06:43:38;;;;;;;18.57;7.63;;;;;;;6.63;100.00;102952.47;1914638;74;26710;-83
2021/04/23 06:46:08;;;;;;;15.30;7.00;;;;;;;6.78;100.00;102945.70;1914514;73;26219;-82
2021/04/23 06:48:38;;;;;;;12.20;7.43;;;;;;;6.86;100.00;102946.03;1914607;74;26174;-80
2021/04/23 06:51:08;;;;;;;18.17;7.40;;;;;;;6.81;100.00;102948.05;1914564;74;26202;-82
2021/04/23 06:53:39;;;;;;;16.73;7.77;;;;;;;6.96;100.00;102951.16;1914498;74;26246;-82
2021/04/23 06:56:09;;;;;;;14.90;7.27;;;;;;;6.97;100.00;102959.25;1914569;74;26242;-82
2021/04/23 06:58:39;;;;;;;13.87;7.30;;;;;;;7.17;100.00;102962.03;1914625;74;26769;-83
2021/04/23 07:01:09;;;;;;;13.77;7.43;;;;;;;7.38;100.00;102964.59;1914718;74;26168;-85
2021/04/23 07:03:41;;;;;;;15.60;7.67;;;;;;;7.41;100.00;102961.39;1914573;74;26659;-84
2021/04/23 07:06:11;;;;;;;13.40;7.50;;;;;;;7.53;100.00;102961.06;1914801;75;26231;-83
2021/04/23 07:08:41;;;;;;;12.63;7.17;;;;;;;7.50;100.00;102962.03;1914763;74;26312;-83
2021/04/23 07:11:11;;;;;;;13.90;7.40;;;;;;;7.63;100.00;102955.96;1914566;75;26256;-83
2021/04/23 07:13:41;;;;;;;14.63;7.10;;;;;;;7.73;100.00;102959.16;1914603;74;26647;-83
2021/04/23 07:16:11;;;;;;;15.07;8.07;;;;;;;7.68;100.00;102956.17;1914701;74;26309;-83
2021/04/23 07:18:41;;;;;;;14.63;7.70;;;;;;;7.94;100.00;102964.96;1914919;74;26215;-83
2021/04/23 07:21:10;;;;;;;18.23;8.17;;;;;;;7.94;100.00;102962.20;1914693;74;26296;-83
2021/04/23 07:23:40;;;;;;;17.27;7.90;;;;;;;7.97;100.00;102963.66;1914658;74;26841;-84
2021/04/23 07:26:13;;;;;;;17.20;8.47;;;;;;;8.13;100.00;102959.89;1914631;74;26307;-83
2021/04/23 07:28:43;;;;;;;12.43;7.77;;;;;;;8.22;100.00;102954.44;1914653;74;26195;-84
2021/04/23 07:31:13;;;;;;;17.17;8.00;;;;;;;8.47;100.00;102953.75;1914847;74;26188;-82
2021/04/23 07:33:43;;;;;;;13.07;7.50;;;;;;;8.48;100.00;102957.66;1914818;74;26253;-82
2021/04/23 07:36:13;;;;;;;16.03;8.03;;;;;;;8.65;100.00;102953.32;1914599;74;26187;-81
2021/04/23 07:38:43;;;;;;;14.10;7.53;;;;;;;8.80;100.00;102946.64;1914669;75;26264;-83
2021/04/23 07:41:13;;;;;;;16.53;7.80;;;;;;;8.97;100.00;102954.21;1914665;74;26184;-81
2021/04/23 07:43:43;;;;;;;13.83;7.33;;;;;;;9.22;100.00;102952.85;1914588;74;26191;-81
2021/04/23 07:46:14;;;;;;;18.10;8.17;;;;;;;9.31;100.00;102957.58;1914683;75;26195;-81
2021/04/23 07:48:44;;;;;;;15.00;6.97;;;;;;;9.27;100.00;102949.41;1892323;75;26312;-82
2021/04/23 07:51:14;;;;;;;17.03;7.33;;;;;;;9.37;100.00;102940.05;1914265;74;26172;-82
2021/04/23 07:53:44;;;;;;;12.00;6.73;;;;;;;9.63;100.00;102942.56;1914707;74;26179;-82
2021/04/23 07:56:14;;;;;;;12.90;6.97;;;;;;;9.89;100.00;102939.52;1914602;74;26242;-82
2021/04/23 07:58:45;;;;;;;12.43;6.03;;;;;;;10.15;100.00;102933.36;1914764;74;26175;-82
2021/04/23 08:01:15;;;;;;;11.03;6.00;;;;;;;10.19;100.00;102930.45;1914683;74;26623;-82
2021/04/23 08:03:45;;;;;;;12.00;6.33;;;;;;;10.41;100.00;102932.53;1914574;74;26643;-82
2021/04/23 08:06:15;;;;;;;15.80;6.43;;;;;;;10.78;100.00;102928.31;1914672;74;26704;-82
2021/04/23 08:08:45;;;;;;;11.43;5.97;;;;;;;10.77;100.00;102933.02;1914846;74;26622;-82
2021/04/23 08:11:15;;;;;;;13.10;6.07;;;;;;;10.85;100.00;102927.12;1914605;74;26648;-82
2021/04/23 08:13:45;;;;;;;12.20;5.97;;;;;;;10.86;100.00;102936.31;1914699;75;26668;-82
2021/04/23 08:16:16;;;;;;;9.47;5.67;;;;;;;11.04;100.00;102929.84;1914656;74;26265;-81
2021/04/23 08:18:51;;;;;;;11.40;6.30;;;;;;;11.10;100.00;102928.88;1914624;74;26739;-81
2021/04/23 08:21:17;;;;;;;12.47;6.00;;;;;;;11.20;100.00;102927.22;1913792;75;26621;-81
2021/04/23 08:23:47;;;;;;;13.40;6.37;;;;;;;11.18;100.00;102928.52;1914594;74;26192;-81
2021/04/23 08:26:18;;;;;;;10.97;5.93;;;;;;;11.34;100.00;102927.82;1914706;74;26315;-81
2021/04/23 08:28:48;;;;;;;11.43;5.83;;;;;;;11.35;100.00;102927.59;1914681;74;26168;-80
2021/04/23 08:31:18;;;;;;;12.30;6.70;;;;;;;11.27;100.00;102924.31;1914559;75;26187;-80
2021/04/23 08:33:48;;;;;;;14.77;6.53;;;;;;;11.56;100.00;102918.34;1914862;74;26607;-80
2021/04/23 08:36:18;;;;;;;11.70;6.33;;;;;;;11.65;100.00;102916.89;1914827;74;26165;-80
2021/04/23 08:38:48;;;;;;;14.00;5.97;;;;;;;11.60;100.00;102913.98;1914675;74;26690;-81
2021/04/23 08:41:17;;;;;;;12.37;6.40;;;;;;;11.58;100.00;102910.61;1914722;74;26269;-82
2021/04/23 08:43:47;;;;;;;10.67;4.00;;;;;;;11.69;100.00;102908.36;1914570;75;26693;-83
2021/04/23 08:46:17;;;;;;;12.93;6.60;;;;;;;12.30;100.00;102900.86;1914816;74;26173;-82
2021/04/23 08:48:49;;;;;;;11.90;6.13;;;;;;;12.26;100.00;102892.69;1914603;74;26227;-82
2021/04/23 08:51:22;;;;;;;12.07;6.43;;;;;;;11.98;100.00;102899.03;1914705;75;26673;-83
2021/04/23 08:53:54;;;;;;;14.60;6.87;;;;;;;12.05;100.00;102897.53;1914554;75;26195;-83
2021/04/23 08:56:24;;;;;;;16.37;6.47;;;;;;;12.31;100.00;102894.20;1914511;74;26657;-82
2021/04/23 08:58:55;;;;;;;13.83;6.03;;;;;;;12.49;100.00;102888.98;1914753;74;26608;-82
2021/04/23 09:01:26;;;;;;;13.07;6.47;;;;;;;12.60;100.00;102883.35;1914682;74;26192;-82
2021/04/23 09:03:56;;;;;;;13.53;6.10;;;;;;;12.60;100.00;102888.08;1914446;74;26720;-82
2021/04/23 09:06:30;;;;;;;13.37;6.40;;;;;;;12.76;100.00;102883.08;1914704;74;26712;-82
2021/04/23 09:09:04;;;;;;;14.63;5.20;;;;;;;12.60;100.00;102881.95;1914566;74;26219;-81
2021/04/23 09:11:40;;;;;;;9.33;4.90;;;;;;;12.95;100.00;102887.36;1914639;74;26183;-82
2021/04/23 09:14:12;;;;;;;15.13;5.53;;;;;;;13.31;100.00;102883.79;1914572;75;26179;-81
2021/04/23 09:16:52;;;;;;;8.63;5.07;;;;;;;13.39;100.00;102879.20;1914653;74;26218;-81
2021/04/23 09:19:24;;;;;;;13.80;5.43;;;;;;;12.96;100.00;102871.47;1914579;74;26242;-81
2021/04/23 09:21:57;;;;;;;11.07;4.57;;;;;;;12.84;100.00;102868.73;1914469;75;26261;-81
2021/04/23 09:24:31;;;;;;;8.20;3.97;;;;;;;13.15;100.00;102874.33;1914589;74;26187;-81
2021/04/23 09:27:03;;;;;;;11.17;5.27;;;;;;;13.68;100.00;102863.47;1914591;75;26196;-81
2021/04/23 09:29:36;;;;;;;7.43;4.30;;;;;;;13.34;100.00;102866.55;1914290;74;26297;-81
2021/04/23 09:32:17;;;;;;;8.37;4.43;;;;;;;13.03;100.00;102873.53;1914541;74;26321;-83
2021/04/23 09:34:53;;;;;;;7.33;3.83;;;;;;;12.90;100.00;102870.52;1914787;74;26168;-81
2021/04/23 09:37:25;;;;;;;6.10;3.67;;;;;;;13.11;100.00;102871.20;1914724;74;26678;-82
2021/04/23 09:40:07;;;;;;;5.13;3.10;;;;;;;13.48;100.00;102858.95;1914537;75;26197;-81
2021/04/23 09:42:49;;;;;;;6.73;3.77;;;;;;;13.36;100.00;102859.61;1914516;74;26286;-81
2021/04/23 09:45:20;;;;;;;8.03;3.77;;;;;;;13.69;100.00;102860.95;1914508;75;26237;-81
2021/04/23 09:47:51;;;;;;;6.47;3.50;;;;;;;13.96;100.00;102854.06;1914549;74;26269;-81
2021/04/23 09:50:31;;;;;;;5.23;3.27;;;;;;;13.92;100.00;102856.23;1914694;75;26213;-82
2021/04/23 09:53:01;;;;;;;5.43;3.23;;;;;;;13.97;100.00;102852.97;1914595;75;26167;-82
2021/04/23 09:55:33;;;;;;;6.00;3.03;;;;;;;14.06;100.00;102847.77;1914642;74;26660;-79
2021/04/23 09:58:05;;;;;;;5.40;3.10;;;;;;;14.08;100.00;102848.34;1914654;74;26647;-79
2021/04/23 10:00:38;;;;;;;7.30;3.30;;;;;;;14.21;100.00;102845.70;1914711;74;26195;-82
2021/04/23 10:03:09;;;;;;;4.97;3.07;;;;;;;14.27;100.00;102851.11;1914630;74;26215;-79
2021/04/23 10:05:41;;;;;;;10.17;3.10;;;;;;;14.37;100.00;102844.83;1914548;75;26171;-81
2021/04/23 10:08:14;;;;;;;8.87;4.20;;;;;;;14.12;100.00;102849.50;1914698;75;26609;-82
2021/04/23 10:10:52;;;;;;;8.30;4.33;;;;;;;14.16;100.00;102856.30;1914154;74;26195;-82
2021/04/23 10:13:30;;;;;;;8.40;3.73;;;;;;;14.04;100.00;102851.36;1914524;74;26591;-82
2021/04/23 10:16:00;;;;;;;6.07;3.20;;;;;;;13.90;100.00;102837.51;1914624;75;26709;-81
2021/04/23 10:18:32;;;;;;;6.73;3.40;;;;;;;14.18;100.00;102833.66;1914501;74;26688;-81
2021/04/23 10:21:02;;;;;;;5.03;3.20;;;;;;;14.22;100.00;102841.80;1914582;74;26229;-81
2021/04/23 10:23:32;;;;;;;7.20;3.00;;;;;;;14.09;100.00;102841.65;1914486;74;26276;-82
2021/04/23 10:26:02;;;;;;;6.13;3.33;;;;;;;14.33;100.00;102842.23;1914577;74;26180;-81
2021/04/23 10:28:34;;;;;;;6.37;2.97;;;;;;;14.33;100.00;102850.07;1914619;74;26634;-81
2021/04/23 10:31:04;;;;;;;5.33;2.70;;;;;;;14.40;100.00;102838.16;1914538;75;26269;-81
2021/04/23 10:33:35;;;;;;;5.53;2.70;;;;;;;14.37;100.00;102845.67;1914548;74;26258;-81
2021/04/23 10:36:06;;;;;;;4.87;2.50;;;;;;;14.33;100.00;102838.05;1914696;74;26179;-81
2021/04/23 10:38:38;;;;;;;7.43;2.83;;;;;;;14.40;100.00;102840.09;1914634;74;26230;-81
2021/04/23 10:41:10;;;;;;;4.57;2.70;;;;;;;14.49;97.75;102834.33;1914581;75;26253;-81
2021/04/23 10:43:51;;;;;;;6.07;3.23;;;;;;;14.62;100.00;102834.46;1914631;74;26254;-81
2021/04/23 10:46:23;;;;;;;6.07;2.47;;;;;;;14.88;100.00;102831.66;1914652;74;26179;-81
2021/04/23 10:48:56;;;;;;;7.50;2.83;;;;;;;14.98;100.00;102837.32;1914628;73;26646;-81
2021/04/23 10:51:29;;;;;;;5.33;2.07;;;;;;;14.91;98.05;102835.31;1914469;74;26594;-82
2021/04/23 10:54:12;;;;;;;5.73;2.60;;;;;;;14.93;93.02;102837.86;1914872;74;26350;-82
2021/04/23 10:56:42;;;;;;;5.50;2.53;;;;;;;14.99;93.30;102835.38;1914273;74;26299;-82
2021/04/23 10:59:29;;;;;;;5.07;2.40;;;;;;;15.08;93.94;102830.98;1914299;74;26261;-82
2021/04/23 11:02:14;;;;;;;6.70;3.00;;;;;;;14.97;90.20;102823.03;1914627;74;26237;-82
2021/04/23 11:04:58;;;;;;;7.00;2.70;;;;;;;14.95;89.53;102821.62;1914857;74;26223;-82
2021/04/23 11:07:28;;;;;;;6.17;2.97;;;;;;;15.42;87.63;102816.95;1914797;74;26171;-82
2021/04/23 11:10:00;;;;;;;4.63;2.30;;;;;;;15.45;86.83;102822.56;1914678;74;26179;-82
2021/04/23 11:12:30;;;;;;;4.50;2.33;;;;;;;15.37;85.11;102823.06;1914640;74;26175;-83
2021/04/23 11:15:16;;;;;;;4.70;2.17;;;;;;;15.38;85.84;102821.41;1914722;74;26277;-81
2021/04/23 11:17:46;;;;;;;4.80;2.00;;;;;;;15.55;85.58;102824.06;1914707;74;26627;-81
2021/04/23 11:20:30;;;;;;;3.93;2.20;;;;;;;15.60;87.74;102817.09;1914674;74;26658;-81
2021/04/23 11:23:02;;;;;;;4.30;2.30;;;;;;;15.52;89.13;102812.02;1914740;75;26168;-81
2021/04/23 11:25:33;;;;;;;5.07;2.10;;;;;;;15.68;94.82;102808.18;1914599;74;26230;-81
2021/04/23 11:28:14;;;;;;;3.33;1.63;;;;;;;15.62;97.28;102811.20;1914662;74;26176;-81
2021/04/23 11:31:08;;;;;;;6.03;2.60;;;;;;;16.49;100.00;102801.46;1914723;74;26686;-82
2021/04/23 11:34:06;;;;;;;3.47;1.73;;;;;;;15.77;83.51;102804.30;1914714;74;26237;-83
2021/04/23 11:36:40;;;;;;;5.80;2.40;;;;;;;16.29;100.00;102789.64;1914689;74;26245;-82
2021/04/23 11:39:14;;;;;;;6.43;2.67;;;;;;;16.67;97.39;102791.14;1914595;74;26175;-83